Time;durP1;ratioP1;P1;durP2;ratioP2;P2;SDS_P1;SDS_P2;PMS_P1;PMS_P2;Temp;Humidity;BMP_temperature;BMP_pressure;BME280_temperature;BME280_humidity;BME280_pressure;Samples;Min_cycle;Max_cycle;Signal;HPM_P1;HPM_P2
2021/03/27 00:00:29;;;;;;;;;;;;;;;20.55;36.50;101096.38;3090867;28;113891;-57
2021/03/27 00:02:01;;;;;;;;;;;;;;;20.55;36.49;101107.59;3098329;28;114140;-57
2021/03/27 00:03:38;;;;;;;;;;;;;;;20.54;36.52;101103.13;3088771;28;114775;-57
2021/03/27 00:05:14;;;;;;;;;;;;;;;20.53;36.66;101090.25;3114223;27;113824;-57
2021/03/27 00:06:48;;;;;;;;;;;;;;;20.52;36.57;101094.19;3101362;27;114040;-57
2021/03/27 00:08:23;;;;;;;;;;;;;;;20.50;36.76;101104.88;3102469;28;113748;-57
2021/03/27 00:10:04;;;;;;;;;;;;;;;20.52;36.84;101101.78;3091110;28;115421;-57
2021/03/27 00:11:40;;;;;;;;;;;;;;;20.50;37.08;101106.84;3086516;28;115336;-57
2021/03/27 00:13:21;;;;;;;;;;;;;;;20.50;36.98;101116.09;3092742;28;115034;-57
2021/03/27 00:14:58;;;;;;;;;;;;;;;20.48;36.92;101111.94;3091082;28;115313;-57
2021/03/27 00:16:33;;;;;;;;;;;;;;;20.48;36.95;101111.94;3092667;28;115270;-56
2021/03/27 00:18:16;;;;;;;;;;;;;;;20.45;37.10;101123.75;3086322;28;114157;-57
2021/03/27 00:19:53;;;;;;;;;;;;;;;20.45;37.09;101129.38;3098637;28;114419;-57
2021/03/27 00:21:31;;;;;;;;;;;;;;;20.41;37.00;101126.34;3079889;28;115253;-57
2021/03/27 00:23:11;;;;;;;;;;;;;;;20.39;37.43;101129.47;3104499;27;115203;-57
2021/03/27 00:24:52;;;;;;;;;;;;;;;20.39;37.26;101131.44;3096668;28;115306;-56
2021/03/27 00:26:23;;;;;;;;;;;;;;;20.38;37.41;101126.97;3103836;28;115499;-57
2021/03/27 00:28:02;;;;;;;;;;;;;;;20.36;37.43;101129.22;3095827;28;114210;-57
2021/03/27 00:29:38;;;;;;;;;;;;;;;20.35;37.43;101133.19;3087035;28;113898;-57
2021/03/27 00:31:14;;;;;;;;;;;;;;;20.33;37.41;101139.09;3091405;28;115404;-57
2021/03/27 00:32:47;;;;;;;;;;;;;;;20.31;37.57;101129.28;3111761;27;115898;-56
2021/03/27 00:34:21;;;;;;;;;;;;;;;20.29;37.36;101135.19;3086718;28;117850;-57
2021/03/27 00:35:57;;;;;;;;;;;;;;;20.27;37.55;101128.19;3093979;28;115938;-57
2021/03/27 00:37:28;;;;;;;;;;;;;;;20.26;37.53;101132.97;3086708;28;115833;-57
2021/03/27 00:39:03;;;;;;;;;;;;;;;20.24;37.68;101143.69;3086263;28;115860;-57
2021/03/27 00:40:41;;;;;;;;;;;;;;;20.24;37.49;101134.41;3087397;28;114498;-57
2021/03/27 00:42:18;;;;;;;;;;;;;;;20.24;37.70;101138.06;3086201;28;115877;-57
2021/03/27 00:43:55;;;;;;;;;;;;;;;20.21;38.08;101151.88;3086642;28;115702;-57
2021/03/27 00:45:27;;;;;;;;;;;;;;;20.21;37.89;101146.25;3087538;28;116032;-57
2021/03/27 00:46:59;;;;;;;;;;;;;;;20.18;38.18;101147.69;3107190;27;116487;-57
2021/03/27 00:48:32;;;;;;;;;;;;;;;20.15;37.66;101153.06;3089034;28;115869;-57
2021/03/27 00:50:08;;;;;;;;;;;;;;;20.14;37.79;101145.78;3106966;27;114593;-57
2021/03/27 00:51:42;;;;;;;;;;;;;;;20.13;37.87;101146.91;3090137;28;115679;-57
2021/03/27 00:53:16;;;;;;;;;;;;;;;20.10;38.22;101148.34;3104849;27;115980;-57
2021/03/27 00:54:55;;;;;;;;;;;;;;;20.11;38.14;101166.03;3103622;27;114226;-57
2021/03/27 00:56:30;;;;;;;;;;;;;;;20.05;38.03;101145.63;3091448;28;113907;-57
2021/03/27 00:58:06;;;;;;;;;;;;;;;20.06;38.03;101166.09;3085362;28;113885;-57
2021/03/27 00:59:44;;;;;;;;;;;;;;;20.03;38.12;101159.13;3085722;28;114074;-57
2021/03/27 01:01:16;;;;;;;;;;;;;;;20.02;37.90;101151.84;3112161;27;114411;-57
2021/03/27 01:02:50;;;;;;;;;;;;;;;20.01;37.97;101163.34;3093786;28;113856;-57
2021/03/27 01:04:24;;;;;;;;;;;;;;;19.98;38.05;101160.03;3094786;28;113756;-57
2021/03/27 01:05:55;;;;;;;;;;;;;;;19.99;38.15;101155.22;3086390;28;114079;-57
2021/03/27 01:07:31;;;;;;;;;;;;;;;19.99;38.45;101166.44;3085206;28;114299;-56
2021/03/27 01:09:03;;;;;;;;;;;;;;;19.97;38.25;101163.94;3098495;28;114334;-57
2021/03/27 01:10:44;;;;;;;;;;;;;;;19.97;38.18;101163.94;3085607;28;113874;-57
2021/03/27 01:12:18;;;;;;;;;;;;;;;19.97;38.36;101161.16;3084776;28;113940;-57
2021/03/27 01:13:53;;;;;;;;;;;;;;;19.92;38.26;101161.22;3111279;28;113902;-57
2021/03/27 01:15:26;;;;;;;;;;;;;;;19.93;38.18;101167.66;3096992;27;113834;-57
2021/03/27 01:17:15;;;;;;;;;;;;;;;19.92;38.24;101160.38;3110511;27;115433;-56
2021/03/27 01:18:48;;;;;;;;;;;;;;;19.92;38.46;101161.22;3085769;28;115050;-57
2021/03/27 01:20:21;;;;;;;;;;;;;;;19.91;38.25;101158.69;3094393;28;115576;-57
2021/03/27 01:21:54;;;;;;;;;;;;;;;19.87;38.35;101158.47;3090620;28;115538;-56
2021/03/27 01:23:29;;;;;;;;;;;;;;;19.89;38.22;101169.38;3109756;27;115081;-57
2021/03/27 01:25:03;;;;;;;;;;;;;;;19.85;38.58;101169.13;3088952;28;114805;-57
2021/03/27 01:26:42;;;;;;;;;;;;;;;19.87;38.51;101166.03;3087203;28;115211;-57
2021/03/27 01:28:13;;;;;;;;;;;;;;;19.86;38.45;101162.38;3087582;28;113870;-57
2021/03/27 01:29:54;;;;;;;;;;;;;;;19.87;38.52;101175.28;3086283;28;115377;-56
2021/03/27 01:31:41;;;;;;;;;;;;;;;19.85;38.72;101171.13;3086709;28;115107;-57
2021/03/27 01:33:19;;;;;;;;;;;;;;;19.85;38.75;101171.94;3098252;28;113955;-57
2021/03/27 01:35:03;;;;;;;;;;;;;;;19.85;38.60;101169.13;3079471;28;114289;-57
2021/03/27 01:36:39;;;;;;;;;;;;;;;19.83;38.71;101174.22;3109087;27;115432;-57
2021/03/27 01:38:14;;;;;;;;;;;;;;;19.84;38.69;101177.84;3089748;28;115088;-57
2021/03/27 01:39:46;;;;;;;;;;;;;;;19.83;38.76;101184.59;3086801;28;115823;-57
2021/03/27 01:41:17;;;;;;;;;;;;;;;19.81;38.70;101178.44;3111033;28;115694;-57
2021/03/27 01:42:58;;;;;;;;;;;;;;;19.78;38.69;101182.69;3093636;28;115838;-57
2021/03/27 01:44:32;;;;;;;;;;;;;;;19.77;38.73;101192.22;3086963;28;115938;-57
2021/03/27 01:46:04;;;;;;;;;;;;;;;19.74;38.50;101190.03;3087408;28;117652;-57
2021/03/27 01:47:43;;;;;;;;;;;;;;;19.76;38.78;101182.13;3086278;28;116263;-56
2021/03/27 01:49:25;;;;;;;;;;;;;;;19.74;38.68;101194.78;3086751;28;115829;-57
2021/03/27 01:51:00;;;;;;;;;;;;;;;19.74;38.91;101195.63;3098002;28;115977;-56
2021/03/27 01:52:41;;;;;;;;;;;;;;;19.74;38.68;101187.22;3077423;28;116155;-56
2021/03/27 01:54:17;;;;;;;;;;;;;;;19.74;38.81;101197.59;3090451;28;115713;-56
2021/03/27 01:55:49;;;;;;;;;;;;;;;19.72;38.74;101180.22;3084129;28;114625;-56
2021/03/27 01:57:22;;;;;;;;;;;;;;;19.71;38.78;101195.41;3105163;27;115953;-56
2021/03/27 01:58:59;;;;;;;;;;;;;;;19.68;38.77;101191.19;3088263;28;116562;-57
2021/03/27 02:00:34;;;;;;;;;;;;;;;19.66;38.80;101201.06;3093628;28;115794;-57
2021/03/27 02:02:11;;;;;;;;;;;;;;;19.63;38.72;101196.84;3111772;28;116212;-57
2021/03/27 02:03:49;;;;;;;;;;;;;;;19.62;38.79;101208.38;3091455;28;113929;-57
2021/03/27 02:05:25;;;;;;;;;;;;;;;19.62;38.66;101205.59;3097207;28;113674;-57
2021/03/27 02:06:57;;;;;;;;;;;;;;;19.61;38.66;101220.72;3090310;28;113716;-57
2021/03/27 02:08:38;;;;;;;;;;;;;;;19.58;38.67;101222.13;3086932;28;114823;-57
2021/03/27 02:10:19;;;;;;;;;;;;;;;19.57;38.67;101214.88;3109567;27;114150;-57
2021/03/27 02:11:50;;;;;;;;;;;;;;;19.57;38.79;101216.84;3092466;27;114503;-56
2021/03/27 02:13:31;;;;;;;;;;;;;;;19.54;38.88;101219.09;3110242;27;113957;-56
2021/03/27 02:15:07;;;;;;;;;;;;;;;19.53;38.72;101222.22;3090451;27;113838;-56
2021/03/27 02:16:39;;;;;;;;;;;;;;;19.55;39.05;101222.72;3085964;28;113750;-57
2021/03/27 02:18:20;;;;;;;;;;;;;;;19.51;39.05;101224.44;3079434;28;114190;-56
2021/03/27 02:19:52;;;;;;;;;;;;;;;19.51;38.94;101225.28;3081559;28;114206;-56
2021/03/27 02:21:33;;;;;;;;;;;;;;;19.49;38.92;101218.28;3086634;28;113802;-57
2021/03/27 02:23:14;;;;;;;;;;;;;;;19.46;39.19;101225.34;3086434;28;113662;-57
2021/03/27 02:24:55;;;;;;;;;;;;;;;19.48;39.11;101230.66;3095119;28;114238;-57
2021/03/27 02:26:36;;;;;;;;;;;;;;;19.48;39.20;101230.66;3105194;27;115245;-57
2021/03/27 02:28:17;;;;;;;;;;;;;;;19.48;39.09;101231.50;3090756;28;115302;-57
2021/03/27 02:29:58;;;;;;;;;;;;;;;19.44;39.23;101227.59;3086025;28;115236;-57
2021/03/27 02:31:38;;;;;;;;;;;;;;;19.45;39.40;101229.25;3086595;28;115388;-57
2021/03/27 02:33:19;;;;;;;;;;;;;;;19.45;39.49;101239.63;3086498;28;115365;-57
2021/03/27 02:34:53;;;;;;;;;;;;;;;19.46;39.43;101235.72;3080469;28;115197;-56
2021/03/27 02:36:34;;;;;;;;;;;;;;;19.46;39.43;101249.72;3089277;28;115055;-57
2021/03/27 02:38:15;;;;;;;;;;;;;;;19.46;39.59;101252.53;3088301;28;115358;-56
2021/03/27 02:39:53;;;;;;;;;;;;;;;19.45;39.58;101251.69;3085696;28;117725;-57
2021/03/27 02:41:34;;;;;;;;;;;;;;;19.43;39.99;101247.47;3097197;28;115029;-57
2021/03/27 02:43:15;;;;;;;;;;;;;;;19.43;40.12;101251.16;3106930;28;115509;-57
2021/03/27 02:44:50;;;;;;;;;;;;;;;19.41;39.82;101258.13;3088385;28;114562;-57
2021/03/27 02:46:31;;;;;;;;;;;;;;;19.42;39.82;101262.63;3086227;28;115435;-57
2021/03/27 02:48:29;;;;;;;;;;;;;;;19.38;39.94;101258.72;3100967;28;114023;-57
2021/03/27 02:50:00;;;;;;;;;;;;;;;19.38;39.88;101259.56;3097332;28;117023;-56
2021/03/27 02:51:42;;;;;;;;;;;;;;;19.38;39.81;101267.13;3085571;28;115678;-57
2021/03/27 02:53:15;;;;;;;;;;;;;;;19.35;39.81;101270.53;3082742;28;115839;-57
2021/03/27 02:54:56;;;;;;;;;;;;;;;19.34;39.86;101277.25;3081701;28;114656;-57
2021/03/27 02:56:38;;;;;;;;;;;;;;;19.33;40.03;101282.03;3074547;28;116233;-57
2021/03/27 02:58:09;;;;;;;;;;;;;;;19.33;40.00;101289.59;3097479;28;115897;-57
2021/03/27 02:59:45;;;;;;;;;;;;;;;19.34;40.01;101296.88;3109569;27;115936;-57
2021/03/27 03:01:25;;;;;;;;;;;;;;;19.28;40.12;101282.06;3090782;27;114746;-57
2021/03/27 03:02:56;;;;;;;;;;;;;;;19.28;40.09;101286.81;3086288;28;114820;-56
2021/03/27 03:04:37;;;;;;;;;;;;;;;19.25;39.86;101296.66;3086352;28;115885;-57
2021/03/27 03:06:08;;;;;;;;;;;;;;;19.24;39.83;101299.75;3086200;28;115824;-57
2021/03/27 03:07:47;;;;;;;;;;;;;;;19.24;40.00;101300.59;3110287;27;115950;-57
2021/03/27 03:09:25;;;;;;;;;;;;;;;19.24;39.99;101299.75;3090856;28;116258;-57
2021/03/27 03:11:06;;;;;;;;;;;;;;;19.22;39.75;101300.03;3100816;28;115670;-57
2021/03/27 03:12:47;;;;;;;;;;;;;;;19.21;39.71;101308.75;3088874;28;113856;-57
2021/03/27 03:14:22;;;;;;;;;;;;;;;19.19;39.69;101296.97;3104328;27;113936;-57
2021/03/27 03:15:55;;;;;;;;;;;;;;;19.18;39.75;101312.09;3092620;28;113786;-57
2021/03/27 03:17:27;;;;;;;;;;;;;;;19.17;39.81;101313.25;3089762;28;113873;-57
2021/03/27 03:19:06;;;;;;;;;;;;;;;19.18;39.73;101306.50;3084675;28;113926;-57
2021/03/27 03:20:47;;;;;;;;;;;;;;;19.17;39.52;101321.66;3083678;28;114135;-56
2021/03/27 03:22:28;;;;;;;;;;;;;;;19.16;39.66;101312.41;3086412;28;113741;-56
2021/03/27 03:24:10;;;;;;;;;;;;;;;19.15;39.81;101315.50;3086398;28;113796;-57
2021/03/27 03:25:47;;;;;;;;;;;;;;;19.12;39.83;101314.13;3086284;28;114160;-57
2021/03/27 03:27:27;;;;;;;;;;;;;;;19.12;39.75;101325.31;3097073;28;114418;-57
2021/03/27 03:28:59;;;;;;;;;;;;;;;19.10;39.61;101322.81;3095518;28;113867;-57
2021/03/27 03:30:34;;;;;;;;;;;;;;;19.08;39.77;101322.25;3100374;28;113854;-57
2021/03/27 03:32:12;;;;;;;;;;;;;;;19.10;39.90;101333.16;3085150;28;114383;-57
2021/03/27 03:33:53;;;;;;;;;;;;;;;19.08;39.92;101332.59;3089058;28;114007;-56
2021/03/27 03:35:25;;;;;;;;;;;;;;;19.09;40.02;101332.31;3101355;28;114187;-56
2021/03/27 03:37:02;;;;;;;;;;;;;;;19.08;39.82;101336.25;3108954;27;115657;-57
2021/03/27 03:38:43;;;;;;;;;;;;;;;19.08;39.65;101330.66;3093746;28;114182;-56
2021/03/27 03:40:19;;;;;;;;;;;;;;;19.05;39.71;101342.44;3085099;28;115051;-56
2021/03/27 03:41:53;;;;;;;;;;;;;;;19.06;39.89;101344.13;3107860;27;115126;-56
2021/03/27 03:43:33;;;;;;;;;;;;;;;19.07;39.73;101344.97;3091946;28;115127;-56
2021/03/27 03:45:09;;;;;;;;;;;;;;;19.08;39.66;101355.00;3086584;28;114290;-56
2021/03/27 03:46:53;;;;;;;;;;;;;;;19.06;39.87;101354.47;3087323;28;115165;-56
2021/03/27 03:48:34;;;;;;;;;;;;;;;19.03;39.80;101353.06;3087686;28;115655;-56
2021/03/27 03:50:15;;;;;;;;;;;;;;;19.04;39.76;101357.56;3087973;28;114750;-56
2021/03/27 03:51:46;;;;;;;;;;;;;;;19.04;39.90;101368.75;3087437;28;115085;-56
2021/03/27 03:53:26;;;;;;;;;;;;;;;19.00;39.66;101367.66;3086013;28;115059;-56
2021/03/27 03:55:04;;;;;;;;;;;;;;;18.98;39.63;101355.94;3075996;28;115253;-56
2021/03/27 03:56:41;;;;;;;;;;;;;;;18.99;39.54;101353.94;3099137;28;115125;-56
2021/03/27 03:58:21;;;;;;;;;;;;;;;18.96;39.64;101363.75;3104677;27;114283;-56
2021/03/27 03:59:55;;;;;;;;;;;;;;;18.95;39.66;101375.25;3093891;28;116316;-56
2021/03/27 04:01:26;;;;;;;;;;;;;;;18.91;39.73;101372.19;3097092;28;115681;-56
2021/03/27 04:02:59;;;;;;;;;;;;;;;18.92;39.76;101367.44;3091245;28;116009;-56
2021/03/27 04:04:39;;;;;;;;;;;;;;;18.92;39.53;101371.06;3088552;28;115721;-56
2021/03/27 04:06:15;;;;;;;;;;;;;;;18.90;39.63;101364.91;3100435;28;115603;-56
2021/03/27 04:07:56;;;;;;;;;;;;;;;18.90;39.58;101364.91;3094156;28;116572;-56
2021/03/27 04:09:33;;;;;;;;;;;;;;;18.87;39.55;101371.09;3089516;28;114645;-56
2021/03/27 04:11:14;;;;;;;;;;;;;;;18.87;39.48;101378.66;3091599;28;115691;-56
2021/03/27 04:12:45;;;;;;;;;;;;;;;18.86;39.41;101374.16;3114508;27;115700;-56
2021/03/27 04:14:26;;;;;;;;;;;;;;;18.85;39.56;101369.72;3103231;27;115083;-56
2021/03/27 04:16:07;;;;;;;;;;;;;;;18.84;39.58;101374.47;3084139;28;116078;-56
2021/03/27 04:17:39;;;;;;;;;;;;;;;18.84;39.47;101374.47;3082583;28;115929;-56
2021/03/27 04:19:32;;;;;;;;;;;;;;;18.81;39.80;101382.59;3094420;28;118259;-56
2021/03/27 04:21:05;;;;;;;;;;;;;;;18.81;39.88;101389.03;3093566;28;115811;-56
2021/03/27 04:22:39;;;;;;;;;;;;;;;18.82;39.72;101387.91;3087048;28;113917;-56
2021/03/27 04:24:13;;;;;;;;;;;;;;;18.76;39.73;101394.63;3110897;27;113740;-56
2021/03/27 04:25:53;;;;;;;;;;;;;;;18.80;39.73;101397.72;3094694;28;113857;-56
2021/03/27 04:27:27;;;;;;;;;;;;;;;18.78;39.45;101402.75;3087430;28;114059;-57
2021/03/27 04:29:13;;;;;;;;;;;;;;;18.77;39.52;101399.13;3087067;28;113964;-56
2021/03/27 04:30:47;;;;;;;;;;;;;;;18.75;39.70;101404.19;3098950;28;113841;-56
2021/03/27 04:32:21;;;;;;;;;;;;;;;18.73;39.68;101403.63;3091251;28;114217;-56
2021/03/27 04:34:03;;;;;;;;;;;;;;;18.74;39.50;101402.50;3097865;28;114241;-56
2021/03/27 04:35:38;;;;;;;;;;;;;;;18.74;39.50;101412.84;3086070;28;114759;-56
2021/03/27 04:37:10;;;;;;;;;;;;;;;18.71;39.82;101419.88;3109594;27;114174;-59
2021/03/27 04:38:51;;;;;;;;;;;;;;;18.70;39.70;101420.16;3102991;27;113708;-58
2021/03/27 04:40:27;;;;;;;;;;;;;;;18.70;39.67;101428.53;3088849;28;113721;-58
2021/03/27 04:42:04;;;;;;;;;;;;;;;18.67;39.67;101421.53;3112166;27;114025;-59
2021/03/27 04:43:45;;;;;;;;;;;;;;;18.67;39.58;101427.13;3099682;28;113909;-59
2021/03/27 04:45:23;;;;;;;;;;;;;;;18.67;39.66;101424.34;3097211;28;115217;-59
2021/03/27 04:46:59;;;;;;;;;;;;;;;18.67;39.64;101435.53;3101325;28;115163;-59
2021/03/27 04:48:42;;;;;;;;;;;;;;;18.66;39.51;101442.28;3099491;28;115543;-58
2021/03/27 04:50:13;;;;;;;;;;;;;;;18.65;39.53;101435.00;3096285;28;115643;-59
2021/03/27 04:51:49;;;;;;;;;;;;;;;18.66;39.80;101436.69;3091040;28;115715;-58
2021/03/27 04:53:24;;;;;;;;;;;;;;;18.64;39.98;101444.50;3113229;27;115490;-58
2021/03/27 04:54:59;;;;;;;;;;;;;;;18.63;39.86;101446.47;3086785;28;115661;-58
2021/03/27 04:56:34;;;;;;;;;;;;;;;18.65;39.74;101444.22;3113390;27;115285;-59
2021/03/27 04:58:06;;;;;;;;;;;;;;;18.63;39.86;101452.06;3094791;28;115261;-58
2021/03/27 04:59:47;;;;;;;;;;;;;;;18.62;39.95;101449.56;3088374;28;115563;-59
2021/03/27 05:01:25;;;;;;;;;;;;;;;18.61;39.74;101462.72;3108686;27;115652;-58
2021/03/27 05:03:06;;;;;;;;;;;;;;;18.59;39.72;101455.72;3087551;28;115392;-59
2021/03/27 05:04:38;;;;;;;;;;;;;;;18.58;39.62;101459.63;3088595;28;115166;-56
2021/03/27 05:06:20;;;;;;;;;;;;;;;18.59;39.62;101462.16;3115398;27;115079;-56
2021/03/27 05:08:01;;;;;;;;;;;;;;;18.57;39.79;101472.81;3094115;27;116050;-56
2021/03/27 05:09:33;;;;;;;;;;;;;;;18.55;39.65;101465.78;3098292;28;115866;-56
2021/03/27 05:11:14;;;;;;;;;;;;;;;18.54;39.59;101467.75;3102063;27;115882;-56
2021/03/27 05:12:55;;;;;;;;;;;;;;;18.52;39.89;101475.56;3089148;28;115842;-56
2021/03/27 05:14:26;;;;;;;;;;;;;;;18.50;39.83;101477.81;3086160;28;114949;-55
2021/03/27 05:16:00;;;;;;;;;;;;;;;18.50;39.64;101485.34;3095074;28;116419;-56
2021/03/27 05:17:41;;;;;;;;;;;;;;;18.53;39.54;101482.03;3095262;28;115962;-56
2021/03/27 05:19:18;;;;;;;;;;;;;;;18.51;39.53;101481.44;3093341;28;115214;-56
2021/03/27 05:20:53;;;;;;;;;;;;;;;18.52;39.57;101486.75;3102119;28;115366;-56
2021/03/27 05:22:34;;;;;;;;;;;;;;;18.48;39.63;101485.66;3090508;28;115710;-56
2021/03/27 05:24:13;;;;;;;;;;;;;;;18.46;39.59;101493.47;3108624;27;114503;-56
2021/03/27 05:25:44;;;;;;;;;;;;;;;18.44;39.66;101498.50;3099453;28;115872;-56
2021/03/27 05:27:16;;;;;;;;;;;;;;;18.45;39.53;101502.16;3094104;28;115529;-56
2021/03/27 05:28:58;;;;;;;;;;;;;;;18.43;39.63;101501.59;3113409;27;116639;-56
2021/03/27 05:30:29;;;;;;;;;;;;;;;18.44;39.44;101506.09;3107744;28;115845;-56
2021/03/27 05:32:13;;;;;;;;;;;;;;;18.42;39.49;101516.69;3090610;28;114167;-56
2021/03/27 05:33:53;;;;;;;;;;;;;;;18.41;39.54;101515.00;3086671;28;113945;-57
2021/03/27 05:35:27;;;;;;;;;;;;;;;18.39;39.68;101517.28;3091825;28;113936;-56
2021/03/27 05:37:07;;;;;;;;;;;;;;;18.40;39.68;101516.97;3089946;28;114276;-57
2021/03/27 05:38:38;;;;;;;;;;;;;;;18.39;39.81;101518.13;3094894;28;113964;-56
2021/03/27 05:40:19;;;;;;;;;;;;;;;18.39;39.60;101517.28;3088483;28;113804;-56
2021/03/27 05:42:03;;;;;;;;;;;;;;;18.40;39.83;101527.31;3079022;28;113786;-56
2021/03/27 05:43:44;;;;;;;;;;;;;;;18.38;39.70;101529.56;3102290;28;114116;-56
2021/03/27 05:45:16;;;;;;;;;;;;;;;18.37;39.52;101534.31;3084688;28;115022;-56
2021/03/27 05:47:00;;;;;;;;;;;;;;;18.34;39.72;101532.09;3082915;28;114331;-56
2021/03/27 05:48:46;;;;;;;;;;;;;;;18.35;39.71;101533.75;3090205;28;113993;-56
2021/03/27 05:50:25;;;;;;;;;;;;;;;18.34;39.86;101536.84;3094706;28;113785;-56
2021/03/27 05:51:59;;;;;;;;;;;;;;;18.34;39.97;101539.66;3098295;28;114197;-56
2021/03/27 05:53:32;;;;;;;;;;;;;;;18.31;39.73;101543.81;3089847;28;114322;-56
2021/03/27 05:55:13;;;;;;;;;;;;;;;18.33;39.80;101543.56;3084873;28;115705;-55
2021/03/27 05:56:54;;;;;;;;;;;;;;;18.32;39.55;101547.47;3099332;28;115846;-56
2021/03/27 05:58:35;;;;;;;;;;;;;;;18.31;40.06;101557.81;3099140;28;114748;-56
2021/03/27 06:00:06;;;;;;;;;;;;;;;18.30;40.02;101558.13;3103290;28;115694;-56
2021/03/27 06:01:42;;;;;;;;;;;;;;;18.29;39.79;101560.06;3098619;28;115662;-56
2021/03/27 06:03:15;;;;;;;;;;;;;;;18.29;39.87;101559.22;3080722;28;114611;-56
2021/03/27 06:04:56;;;;;;;;;;;;;;;18.32;39.92;101567.03;3084352;28;115181;-56
2021/03/27 06:06:28;;;;;;;;;;;;;;;18.28;40.10;101572.38;3086669;28;115455;-56
2021/03/27 06:08:03;;;;;;;;;;;;;;;18.27;40.05;101575.44;3085784;28;114262;-56
2021/03/27 06:09:43;;;;;;;;;;;;;;;18.25;40.04;101584.13;3097627;28;115411;-56
2021/03/27 06:11:24;;;;;;;;;;;;;;;18.25;40.08;101586.91;3089783;28;115775;-56
2021/03/27 06:13:05;;;;;;;;;;;;;;;18.23;40.07;101598.38;3087111;28;115616;-56
2021/03/27 06:14:48;;;;;;;;;;;;;;;18.24;39.86;101588.03;3085831;28;115545;-57
2021/03/27 06:16:31;;;;;;;;;;;;;;;18.25;39.83;101592.50;3089264;28;115038;-56
2021/03/27 06:18:10;;;;;;;;;;;;;;;18.27;40.03;101607.03;3086457;28;115767;-56
2021/03/27 06:19:51;;;;;;;;;;;;;;;18.23;39.95;101611.50;3097539;28;114884;-56
2021/03/27 06:21:22;;;;;;;;;;;;;;;18.22;40.10;101610.66;3100150;28;115894;-56
2021/03/27 06:23:03;;;;;;;;;;;;;;;18.23;39.87;101611.50;3097544;28;116246;-56
2021/03/27 06:24:44;;;;;;;;;;;;;;;18.20;40.15;101624.09;3100504;28;114716;-56
2021/03/27 06:26:23;;;;;;;;;;;;;;;18.20;40.19;101621.31;3088011;28;115723;-55
2021/03/27 06:28:04;;;;;;;;;;;;;;;18.21;40.31;101622.16;3086634;28;115840;-56
2021/03/27 06:29:42;;;;;;;;;;;;;;;18.26;39.77;101633.31;3085916;28;114361;-56
2021/03/27 06:31:23;;;;;;;;;;;;;;;18.23;39.71;101631.09;3086636;28;115653;-56
2021/03/27 06:32:54;;;;;;;;;;;;;;;18.18;39.98;101625.47;3097794;28;115820;-56
2021/03/27 06:34:36;;;;;;;;;;;;;;;18.20;39.93;101631.66;3089337;28;118888;-56
2021/03/27 06:36:07;;;;;;;;;;;;;;;18.18;40.18;101628.28;3085954;28;115836;-57
2021/03/27 06:37:48;;;;;;;;;;;;;;;18.18;40.04;101633.88;3114617;27;115961;-56
2021/03/27 06:39:23;;;;;;;;;;;;;;;18.17;40.09;101632.19;3101368;27;115264;-56
2021/03/27 06:41:04;;;;;;;;;;;;;;;18.21;40.16;101636.13;3089808;28;114174;-55
2021/03/27 06:42:35;;;;;;;;;;;;;;;18.26;40.52;101636.13;3094035;28;113812;-56
2021/03/27 06:44:07;;;;;;;;;;;;;;;18.29;40.57;101640.34;3087171;28;113738;-56
2021/03/27 06:45:42;;;;;;;;;;;;;;;18.33;40.54;101635.88;3097824;28;114156;-56
2021/03/27 06:47:26;;;;;;;;;;;;;;;18.38;40.54;101635.88;3111194;27;113762;-55
2021/03/27 06:49:07;;;;;;;;;;;;;;;18.41;40.58;101633.38;3085522;28;113755;-56
2021/03/27 06:50:39;;;;;;;;;;;;;;;18.45;40.69;101642.03;3101579;27;113827;-55
2021/03/27 06:52:20;;;;;;;;;;;;;;;18.48;40.78;101639.56;3096050;27;113727;-56
2021/03/27 06:54:01;;;;;;;;;;;;;;;18.52;40.88;101651.88;3085837;28;113930;-58
2021/03/27 06:55:42;;;;;;;;;;;;;;;18.56;41.01;101646.56;3088671;28;113949;-59
2021/03/27 06:57:20;;;;;;;;;;;;;;;18.61;41.10;101658.63;3086521;28;113686;-59
2021/03/27 06:59:01;;;;;;;;;;;;;;;18.66;41.15;101660.59;3095307;28;113796;-59
2021/03/27 07:00:42;;;;;;;;;;;;;;;18.71;41.01;101663.41;3092848;28;113865;-59
2021/03/27 07:02:23;;;;;;;;;;;;;;;18.77;41.17;101665.06;3084558;28;113953;-58
2021/03/27 07:03:54;;;;;;;;;;;;;;;18.83;41.01;101671.50;3111981;27;114841;-58
2021/03/27 07:05:35;;;;;;;;;;;;;;;18.87;40.75;101675.44;3082639;28;117419;-58
2021/03/27 07:07:16;;;;;;;;;;;;;;;18.92;40.63;101679.06;3082620;28;115122;-59
2021/03/27 07:08:54;;;;;;;;;;;;;;;18.99;40.70;101687.19;3080801;28;115193;-58
2021/03/27 07:10:35;;;;;;;;;;;;;;;19.04;40.44;101681.56;3086732;28;115497;-59
2021/03/27 07:12:07;;;;;;;;;;;;;;;19.09;40.41;101692.78;3085471;28;115081;-58
2021/03/27 07:13:48;;;;;;;;;;;;;;;19.15;40.17;101688.03;3078548;28;114030;-59
2021/03/27 07:15:39;;;;;;;;;;;;;;;19.20;40.12;101697.28;3090585;28;113835;-59
2021/03/27 07:17:11;;;;;;;;;;;;;;;19.26;40.21;101698.94;3114159;27;115222;-59
2021/03/27 07:18:52;;;;;;;;;;;;;;;19.31;39.99;101706.50;3090621;28;115102;-58
2021/03/27 07:20:24;;;;;;;;;;;;;;;19.36;39.87;101710.13;3093115;28;115661;-58
2021/03/27 07:22:05;;;;;;;;;;;;;;;19.40;39.93;101721.63;3076694;28;115271;-59
2021/03/27 07:23:46;;;;;;;;;;;;;;;19.46;39.74;101717.72;3076979;28;115138;-58
2021/03/27 07:25:17;;;;;;;;;;;;;;;19.50;39.47;101724.44;3099103;28;114614;-59
2021/03/27 07:26:58;;;;;;;;;;;;;;;19.55;39.63;101732.84;3115809;27;116140;-58
2021/03/27 07:28:38;;;;;;;;;;;;;;;19.60;40.58;101730.03;3092671;27;115931;-56
2021/03/27 07:30:14;;;;;;;;;;;;;;;19.66;40.01;101733.69;3088195;28;115971;-56
2021/03/27 07:31:49;;;;;;;;;;;;;;;19.70;40.05;101738.44;3086966;28;114834;-57
2021/03/27 07:33:31;;;;;;;;;;;;;;;19.77;39.94;101738.13;3098248;28;115658;-57
2021/03/27 07:35:15;;;;;;;;;;;;;;;19.79;39.46;101750.75;3089979;28;116567;-57
2021/03/27 07:36:49;;;;;;;;;;;;;;;19.84;39.40;101747.94;3087755;28;116514;-56
2021/03/27 07:38:22;;;;;;;;;;;;;;;19.89;39.33;101749.88;3088028;28;116536;-56
2021/03/27 07:40:03;;;;;;;;;;;;;;;19.90;38.86;101743.97;3111155;28;116062;-56
2021/03/27 07:41:43;;;;;;;;;;;;;;;19.95;38.68;101760.78;3093299;28;116318;-56
2021/03/27 07:43:18;;;;;;;;;;;;;;;19.98;38.69;101757.44;3087261;28;115740;-56
2021/03/27 07:44:50;;;;;;;;;;;;;;;20.03;38.48;101745.38;3080250;28;116414;-56
2021/03/27 07:46:25;;;;;;;;;;;;;;;20.07;38.64;101756.84;3079477;28;115788;-56
2021/03/27 07:48:06;;;;;;;;;;;;;;;20.14;39.01;101765.78;3088194;28;115813;-56
2021/03/27 07:49:47;;;;;;;;;;;;;;;20.16;38.93;101770.00;3079111;28;116196;-56
2021/03/27 07:51:21;;;;;;;;;;;;;;;20.20;38.70;101776.72;3083997;28;113983;-56
2021/03/27 07:52:59;;;;;;;;;;;;;;;20.24;38.65;101785.41;3088134;28;113892;-59
2021/03/27 07:54:40;;;;;;;;;;;;;;;20.27;38.33;101776.41;3086617;28;113905;-59
2021/03/27 07:56:12;;;;;;;;;;;;;;;20.30;38.50;101778.69;3099815;28;113997;-59
2021/03/27 07:57:53;;;;;;;;;;;;;;;20.34;38.49;101789.06;3090217;28;113926;-59
2021/03/27 07:59:25;;;;;;;;;;;;;;;20.37;38.24;101779.19;3087182;28;114111;-56
2021/03/27 08:00:59;;;;;;;;;;;;;;;20.40;37.87;101781.41;3087814;28;114171;-56
2021/03/27 08:02:40;;;;;;;;;;;;;;;20.43;38.10;101783.69;3094546;28;114129;-56
2021/03/27 08:04:17;;;;;;;;;;;;;;;20.47;38.23;101784.78;3103156;28;114055;-56
2021/03/27 08:05:58;;;;;;;;;;;;;;;20.51;38.20;101779.41;3087871;28;113991;-56
2021/03/27 08:07:39;;;;;;;;;;;;;;;20.54;38.66;101785.28;3117431;27;114086;-56
2021/03/27 08:09:17;;;;;;;;;;;;;;;20.58;38.21;101785.59;3102988;27;113816;-56
2021/03/27 08:10:49;;;;;;;;;;;;;;;20.62;38.05;101793.13;3087955;28;113791;-56
2021/03/27 08:12:30;;;;;;;;;;;;;;;20.66;38.31;101813.06;3125332;27;114161;-56
2021/03/27 08:14:08;;;;;;;;;;;;;;;20.69;38.01;101801.22;3103631;27;115296;-56